createdAt,value
2019-03-06T00:00:41.534Z,5.50
2019-03-06T00:03:09.754Z,6.53
2019-03-06T00:05:38.219Z,8.57
2019-03-06T00:08:06.471Z,6.73
2019-03-06T00:10:34.662Z,4.53
2019-03-06T00:13:03.680Z,8.27
2019-03-06T00:15:31.994Z,7.17
2019-03-06T00:18:00.526Z,4.93
2019-03-06T00:20:28.629Z,6.17
2019-03-06T00:22:56.749Z,8.60
2019-03-06T00:25:24.891Z,4.85
2019-03-06T00:27:53.079Z,4.33
2019-03-06T00:30:21.269Z,5.90
2019-03-06T00:32:49.411Z,5.07
2019-03-06T00:35:22.175Z,4.87
2019-03-06T00:37:50.366Z,10.13
2019-03-06T00:40:23.152Z,4.47
2019-03-06T00:42:51.448Z,5.93
2019-03-06T00:45:19.655Z,5.47
2019-03-06T00:47:47.774Z,7.33
2019-03-06T00:50:15.965Z,13.53
2019-03-06T00:52:44.666Z,9.25
2019-03-06T00:55:13.067Z,9.53
2019-03-06T00:57:41.569Z,7.20
2019-03-06T01:00:11.237Z,8.57
2019-03-06T01:02:39.380Z,6.27
2019-03-06T01:05:08.481Z,7.20
2019-03-06T01:07:36.599Z,6.33
2019-03-06T01:10:06.258Z,6.37
2019-03-06T01:12:34.672Z,8.63
2019-03-06T01:15:04.448Z,7.07
2019-03-06T01:17:32.651Z,6.60
2019-03-06T01:20:00.849Z,9.80
2019-03-06T01:22:29.103Z,9.17
2019-03-06T01:24:57.229Z,8.67
2019-03-06T01:27:25.397Z,7.62
2019-03-06T01:29:53.609Z,8.50
2019-03-06T01:32:22.524Z,9.67
2019-03-06T01:35:01.287Z,6.37
2019-03-06T01:37:31.050Z,8.47
2019-03-06T01:40:39.249Z,9.67
2019-03-06T01:43:12.024Z,8.10
2019-03-06T01:45:40.214Z,10.73
2019-03-06T01:48:08.410Z,8.77
2019-03-06T01:50:36.608Z,11.85
2019-03-06T01:53:04.796Z,9.73
2019-03-06T01:55:33.468Z,8.50
2019-03-06T01:58:01.664Z,11.37
2019-03-06T02:00:29.863Z,10.97
2019-03-06T02:02:57.966Z,7.90
2019-03-06T02:05:26.562Z,12.87
2019-03-06T02:07:54.859Z,11.13
2019-03-06T02:10:23.168Z,10.23
2019-03-06T02:12:51.365Z,11.40
2019-03-06T02:15:19.834Z,12.53
2019-03-06T02:17:48.015Z,12.50
2019-03-06T02:20:16.981Z,10.60
2019-03-06T02:22:45.380Z,12.60
2019-03-06T02:25:14.431Z,11.80
2019-03-06T02:27:42.996Z,12.90
2019-03-06T02:30:12.667Z,14.50
2019-03-06T02:32:40.785Z,14.83
2019-03-06T02:35:09.037Z,15.27
2019-03-06T02:37:37.178Z,12.47
2019-03-06T02:40:06.162Z,17.80
2019-03-06T02:42:34.310Z,17.27
2019-03-06T02:45:02.459Z,12.70
2019-03-06T02:47:31.492Z,12.03
2019-03-06T02:49:59.602Z,14.67
2019-03-06T02:52:27.814Z,14.30
2019-03-06T02:54:56.111Z,14.67
2019-03-06T02:57:24.311Z,13.00
2019-03-06T02:59:54.188Z,15.17
2019-03-06T03:02:29.730Z,14.20
2019-03-06T03:04:59.493Z,15.08
2019-03-06T03:07:27.595Z,12.47
2019-03-06T03:09:56.448Z,18.13
2019-03-06T03:12:24.581Z,12.40
2019-03-06T03:14:52.705Z,13.80
2019-03-06T03:17:20.894Z,11.93
2019-03-06T03:19:49.188Z,11.75
2019-03-06T03:22:17.301Z,15.00
2019-03-06T03:24:45.462Z,14.87
2019-03-06T03:27:13.758Z,18.17
2019-03-06T03:29:41.997Z,15.00
2019-03-06T03:32:10.176Z,25.57
2019-03-06T03:34:38.363Z,13.87
2019-03-06T03:37:07.239Z,14.73
2019-03-06T03:39:35.439Z,13.43
2019-03-06T03:42:03.631Z,14.93
2019-03-06T03:44:31.792Z,16.40
2019-03-06T03:47:00.220Z,19.47
2019-03-06T03:49:28.463Z,17.52
2019-03-06T03:51:56.634Z,17.23
2019-03-06T03:54:24.740Z,14.47
2019-03-06T03:56:52.857Z,13.67
2019-03-06T03:59:21.000Z,13.53
2019-03-06T04:01:49.308Z,17.80
2019-03-06T04:04:17.438Z,12.53
2019-03-06T04:06:45.661Z,15.75
2019-03-06T04:09:13.920Z,13.90
2019-03-06T04:11:42.052Z,15.35
2019-03-06T04:14:10.272Z,16.93
2019-03-06T04:16:38.390Z,15.57
2019-03-06T04:19:06.523Z,20.07
2019-03-06T04:21:34.731Z,14.97
2019-03-06T04:24:02.864Z,14.93
2019-03-06T04:26:31.052Z,18.20
2019-03-06T04:28:59.445Z,12.67
2019-03-06T04:31:27.570Z,13.37
2019-03-06T04:33:56.448Z,19.03
2019-03-06T04:36:24.672Z,12.47
2019-03-06T04:38:52.851Z,17.73
2019-03-06T04:41:20.974Z,15.23
2019-03-06T04:43:49.105Z,14.53
2019-03-06T04:46:17.246Z,15.33
2019-03-06T04:48:45.465Z,15.00
2019-03-06T04:51:13.748Z,16.23
2019-03-06T04:53:41.882Z,19.45
2019-03-06T04:56:10.078Z,16.13
2019-03-06T04:58:38.274Z,17.20
2019-03-06T05:01:06.450Z,15.33
2019-03-06T05:03:34.653Z,16.25
2019-03-06T05:06:02.824Z,15.77
2019-03-06T05:08:31.122Z,15.87
2019-03-06T05:10:59.306Z,15.23
2019-03-06T05:13:27.446Z,15.40
2019-03-06T05:15:56.315Z,15.10
2019-03-06T05:18:28.826Z,15.00
2019-03-06T05:20:57.358Z,14.87
2019-03-06T05:23:25.603Z,15.30
2019-03-06T05:25:53.727Z,16.07
2019-03-06T05:28:21.849Z,13.53
2019-03-06T05:30:50.058Z,15.47
2019-03-06T05:33:18.199Z,15.57
2019-03-06T05:36:00.168Z,15.27
2019-03-06T05:38:35.531Z,15.27
2019-03-06T05:41:03.763Z,15.18
2019-03-06T05:43:32.300Z,16.40
2019-03-06T05:46:01.184Z,11.47
2019-03-06T05:48:29.311Z,13.37
2019-03-06T05:50:57.442Z,15.17
2019-03-06T05:53:25.562Z,15.43
2019-03-06T05:55:53.785Z,15.90
2019-03-06T05:58:22.025Z,16.37
2019-03-06T06:00:50.295Z,15.47
2019-03-06T06:03:19.214Z,10.10
2019-03-06T06:05:47.469Z,14.90
2019-03-06T06:08:15.973Z,9.33
2019-03-06T06:10:44.113Z,11.10
2019-03-06T06:13:12.308Z,14.60
2019-03-06T06:15:40.426Z,10.90
2019-03-06T06:18:08.570Z,11.07
2019-03-06T06:20:36.717Z,9.83
2019-03-06T06:23:09.372Z,11.77
2019-03-06T06:25:38.346Z,13.28
2019-03-06T06:28:06.577Z,14.13
2019-03-06T06:30:34.829Z,9.23
2019-03-06T06:33:02.966Z,9.67
2019-03-06T06:35:31.114Z,12.03
2019-03-06T06:37:59.235Z,10.90
2019-03-06T06:40:27.439Z,12.27
2019-03-06T06:42:56.080Z,10.40
2019-03-06T06:45:24.268Z,10.40
2019-03-06T06:48:12.780Z,14.17
2019-03-06T06:50:42.385Z,13.10
2019-03-06T06:53:28.764Z,11.97
2019-03-06T06:56:10.457Z,9.07
2019-03-06T06:58:44.440Z,11.17
2019-03-06T07:01:18.705Z,10.70
2019-03-06T07:04:09.978Z,11.07
2019-03-06T07:06:42.644Z,12.63
2019-03-06T07:11:54.090Z,11.50
2019-03-06T07:14:26.397Z,11.13
2019-03-06T07:17:11.339Z,13.57
2019-03-06T07:19:47.199Z,11.38
2019-03-06T07:22:17.064Z,13.30
2019-03-06T07:25:03.287Z,14.60
2019-03-06T07:27:38.871Z,14.78
2019-03-06T07:30:22.052Z,12.13
2019-03-06T07:32:54.503Z,14.35
2019-03-06T07:35:45.210Z,9.13
2019-03-06T07:38:13.471Z,10.53
2019-03-06T07:40:59.643Z,10.80
2019-03-06T07:43:46.110Z,10.83
2019-03-06T07:46:16.246Z,9.53
2019-03-06T07:48:48.891Z,11.27
2019-03-06T07:51:21.483Z,7.70
2019-03-06T07:53:55.057Z,10.43
2019-03-06T07:56:28.254Z,8.10
2019-03-06T07:58:57.643Z,11.40
2019-03-06T08:02:17.513Z,9.67
2019-03-06T08:04:54.815Z,7.83
2019-03-06T08:07:23.026Z,13.57
2019-03-06T08:09:51.464Z,8.47
2019-03-06T08:12:30.548Z,10.50
2019-03-06T08:15:00.395Z,9.80
2019-03-06T08:17:30.146Z,9.40
2019-03-06T08:20:14.867Z,7.37
2019-03-06T08:23:01.372Z,8.67
2019-03-06T08:25:37.086Z,12.10
2019-03-06T08:28:05.330Z,7.37
2019-03-06T08:30:35.280Z,9.68
2019-03-06T08:33:03.403Z,5.10
2019-03-06T08:35:31.550Z,10.80
2019-03-06T08:38:02.877Z,8.30
2019-03-06T08:40:31.824Z,11.93
2019-03-06T08:42:59.950Z,5.97
2019-03-06T08:45:35.529Z,7.00
2019-03-06T08:48:08.127Z,9.53
2019-03-06T08:50:43.564Z,7.00
2019-03-06T08:53:19.188Z,7.30
2019-03-06T08:55:58.021Z,4.83
2019-03-06T08:58:30.857Z,5.50
2019-03-06T09:01:04.689Z,6.77
2019-03-06T09:03:37.333Z,5.47
2019-03-06T09:06:25.998Z,6.95
2019-03-06T09:09:08.658Z,10.97
2019-03-06T09:11:41.346Z,8.93
2019-03-06T09:14:14.240Z,8.03
2019-03-06T09:16:59.305Z,7.07
2019-03-06T09:19:29.113Z,6.80
2019-03-06T09:21:58.994Z,3.77
2019-03-06T09:24:31.913Z,6.12
2019-03-06T09:27:18.402Z,6.00
2019-03-06T09:29:48.214Z,5.67
2019-03-06T09:32:26.764Z,6.87
2019-03-06T09:34:56.558Z,5.90
2019-03-06T09:37:26.458Z,6.22
2019-03-06T09:39:59.056Z,8.33
2019-03-06T09:42:43.949Z,3.87
2019-03-06T09:45:19.675Z,9.23
2019-03-06T09:47:58.523Z,6.00
2019-03-06T09:50:28.314Z,4.53
2019-03-06T09:53:14.817Z,6.20
2019-03-06T09:56:00.827Z,7.37
2019-03-06T09:58:33.612Z,7.90
2019-03-06T10:01:13.044Z,5.13
2019-03-06T10:03:46.250Z,3.97
2019-03-06T10:06:32.374Z,3.47
2019-03-06T10:09:08.197Z,3.84
2019-03-06T10:11:41.124Z,2.97
2019-03-06T10:14:27.561Z,6.45
2019-03-06T10:17:09.970Z,6.77
2019-03-06T10:19:48.946Z,3.07
2019-03-06T10:22:17.151Z,8.67
2019-03-06T10:24:45.413Z,4.07
2019-03-06T10:27:13.673Z,5.28
2019-03-06T10:29:41.901Z,4.37
2019-03-06T10:32:10.280Z,9.27
2019-03-06T10:34:38.454Z,7.37
2019-03-06T10:39:34.966Z,5.27
2019-03-06T10:42:03.240Z,2.07
2019-03-06T10:44:31.453Z,2.97
2019-03-06T10:46:59.654Z,5.25
2019-03-06T10:49:28.956Z,5.67
2019-03-06T10:51:57.284Z,6.07
2019-03-06T10:54:26.634Z,5.17
2019-03-06T10:56:54.927Z,4.83
2019-03-06T10:59:23.194Z,4.80
2019-03-06T11:01:51.484Z,2.90
2019-03-06T11:04:27.132Z,5.73
2019-03-06T11:06:55.494Z,3.03
2019-03-06T11:09:24.749Z,3.90
2019-03-06T11:11:53.011Z,4.08
2019-03-06T11:14:21.426Z,4.67
2019-03-06T11:16:50.579Z,3.75
2019-03-06T11:19:19.225Z,2.90
2019-03-06T11:21:47.775Z,4.63
2019-03-06T11:24:15.972Z,3.70
2019-03-06T11:26:44.251Z,3.57
2019-03-06T11:29:12.468Z,4.67
2019-03-06T11:31:40.663Z,6.63
2019-03-06T11:34:09.662Z,5.83
2019-03-06T11:36:37.845Z,4.97
2019-03-06T11:39:07.806Z,5.03
2019-03-06T11:41:36.383Z,4.27
2019-03-06T11:44:04.742Z,3.83
2019-03-06T11:46:33.019Z,5.95
2019-03-06T11:49:01.207Z,2.97
2019-03-06T11:51:29.337Z,4.60
2019-03-06T11:53:57.543Z,4.17
2019-03-06T11:56:26.051Z,3.37
2019-03-06T11:58:54.512Z,3.83
2019-03-06T12:01:23.987Z,3.27
2019-03-06T12:03:52.749Z,3.97
2019-03-06T12:06:21.363Z,5.97
2019-03-06T12:08:49.569Z,6.12
2019-03-06T12:11:17.826Z,3.93
2019-03-06T12:13:46.539Z,2.20
2019-03-06T12:16:15.895Z,5.00
2019-03-06T12:18:44.560Z,6.13
2019-03-06T12:21:12.830Z,3.83
2019-03-06T12:23:41.118Z,3.47
2019-03-06T12:26:09.445Z,3.20
2019-03-06T12:28:37.651Z,6.10
2019-03-06T12:31:07.507Z,5.73
2019-03-06T12:33:35.941Z,4.07
2019-03-06T12:36:05.718Z,2.27
2019-03-06T12:38:33.930Z,3.33
2019-03-06T12:41:02.196Z,4.60
2019-03-06T12:43:30.793Z,4.90
2019-03-06T12:46:22.908Z,4.93
2019-03-06T12:48:45.995Z,9.50
2019-03-06T12:51:14.281Z,2.43
2019-03-06T12:53:42.887Z,3.20
2019-03-06T12:56:11.129Z,2.97
2019-03-06T12:58:39.356Z,5.08
2019-03-06T13:01:07.539Z,2.90
2019-03-06T13:03:35.745Z,2.87
2019-03-06T13:06:04.206Z,4.20
2019-03-06T13:08:32.450Z,3.90
2019-03-06T13:11:00.599Z,3.57
2019-03-06T13:15:58.843Z,5.23
2019-03-06T13:18:27.099Z,7.33
2019-03-06T13:20:55.314Z,2.62
2019-03-06T13:23:23.560Z,6.90
2019-03-06T13:25:52.030Z,4.27
2019-03-06T13:28:20.287Z,5.57
2019-03-06T13:30:49.273Z,2.33
2019-03-06T13:33:22.235Z,3.50
2019-03-06T13:35:50.559Z,6.05
2019-03-06T13:38:18.827Z,4.60
2019-03-06T13:40:47.036Z,5.77
2019-03-06T13:43:15.242Z,3.77
2019-03-06T13:45:43.616Z,2.67
2019-03-06T13:48:11.794Z,8.47
2019-03-06T13:50:40.063Z,6.20
2019-03-06T13:53:08.418Z,4.60
2019-03-06T13:55:36.971Z,4.60
2019-03-06T13:58:05.688Z,3.20
2019-03-06T14:00:33.887Z,3.23
2019-03-06T14:03:02.097Z,5.17
2019-03-06T14:05:30.386Z,5.97
2019-03-06T14:07:58.605Z,3.33
2019-03-06T14:10:26.856Z,3.75
2019-03-06T14:12:57.253Z,6.13
2019-03-06T14:15:25.546Z,5.13
2019-03-06T14:17:53.992Z,4.63
2019-03-06T14:20:23.110Z,3.53
2019-03-06T14:22:51.578Z,4.30
2019-03-06T14:25:20.119Z,3.20
2019-03-06T14:27:48.620Z,6.00
2019-03-06T14:30:21.046Z,6.73
2019-03-06T14:32:49.341Z,4.30
2019-03-06T14:35:17.850Z,4.30
2019-03-06T14:37:46.178Z,5.50
2019-03-06T14:40:30.275Z,4.93
2019-03-06T14:42:58.838Z,5.42
2019-03-06T14:45:27.256Z,6.77
2019-03-06T14:47:56.201Z,9.17
2019-03-06T14:50:25.754Z,7.55
2019-03-06T14:52:53.972Z,5.73
2019-03-06T14:55:22.164Z,6.77
2019-03-06T14:57:50.315Z,3.73
2019-03-06T15:00:19.588Z,5.60
2019-03-06T15:02:47.854Z,4.80
2019-03-06T15:05:17.764Z,3.30
2019-03-06T15:07:46.131Z,12.43
2019-03-06T15:10:15.100Z,9.30
2019-03-06T15:12:43.341Z,5.20
2019-03-06T15:15:13.075Z,6.43
2019-03-06T15:17:41.342Z,3.47
2019-03-06T15:20:11.093Z,23.27
2019-03-06T15:22:39.286Z,5.90
2019-03-06T15:25:08.966Z,3.57
2019-03-06T15:27:37.225Z,5.23
2019-03-06T15:30:07.283Z,3.70
2019-03-06T15:32:35.578Z,5.73
2019-03-06T15:35:04.062Z,6.20
2019-03-06T15:37:32.273Z,4.23
2019-03-06T15:40:00.541Z,3.77
2019-03-06T15:42:28.746Z,7.17
2019-03-06T15:44:56.956Z,4.78
2019-03-06T15:47:33.471Z,2.60
2019-03-06T15:49:54.975Z,2.93
2019-03-06T15:52:23.170Z,5.55
2019-03-06T15:54:52.793Z,3.87
2019-03-06T15:57:21.255Z,5.83
2019-03-06T15:59:49.442Z,3.97
2019-03-06T16:02:17.729Z,4.87
2019-03-06T16:04:45.983Z,4.03
2019-03-06T16:07:14.213Z,2.40
2019-03-06T16:09:42.486Z,3.37
2019-03-06T16:12:12.289Z,2.75
2019-03-06T16:14:40.725Z,8.27
2019-03-06T16:17:08.906Z,4.67
2019-03-06T16:19:37.568Z,6.13
2019-03-06T16:24:40.403Z,5.37
2019-03-06T16:27:08.650Z,3.50
2019-03-06T16:29:36.822Z,8.20
2019-03-06T16:32:05.134Z,11.90
2019-03-06T16:34:33.504Z,6.78
2019-03-06T16:37:02.159Z,5.53
2019-03-06T16:39:30.498Z,6.60
2019-03-06T16:41:58.770Z,9.37
2019-03-06T16:44:27.033Z,9.57
2019-03-06T16:46:55.211Z,9.37
2019-03-06T16:49:23.410Z,11.60
2019-03-06T16:52:10.871Z,5.70
2019-03-06T16:54:39.155Z,4.83
2019-03-06T16:57:07.422Z,19.43
2019-03-06T16:59:35.617Z,7.23
2019-03-06T17:02:04.161Z,4.30
2019-03-06T17:04:32.512Z,8.10
2019-03-06T17:07:00.972Z,7.03
2019-03-06T17:09:29.214Z,6.40
2019-03-06T17:11:57.468Z,7.80
2019-03-06T17:14:26.334Z,10.80
2019-03-06T17:16:54.556Z,6.70
2019-03-06T17:19:23.032Z,11.80
2019-03-06T17:21:51.239Z,11.43
2019-03-06T17:24:19.715Z,7.60
2019-03-06T17:26:48.032Z,6.83
2019-03-06T17:29:16.844Z,7.40
2019-03-06T17:31:45.364Z,6.83
2019-03-06T17:34:14.054Z,8.47
2019-03-06T17:36:42.304Z,7.30
2019-03-06T17:39:11.293Z,8.37
2019-03-06T17:41:39.491Z,7.75
2019-03-06T17:44:07.996Z,7.70
2019-03-06T17:46:36.189Z,11.33
2019-03-06T17:49:04.615Z,7.53
2019-03-06T17:51:33.615Z,7.60
2019-03-06T17:54:01.936Z,7.47
2019-03-06T17:56:30.256Z,12.47
2019-03-06T17:58:58.706Z,10.60
2019-03-06T18:01:27.388Z,6.40
2019-03-06T18:04:00.555Z,11.10
2019-03-06T18:06:28.970Z,16.90
2019-03-06T18:08:57.197Z,8.88
2019-03-06T18:11:25.538Z,7.10
2019-03-06T18:13:53.919Z,7.07
2019-03-06T18:16:22.117Z,8.78
2019-03-06T18:18:50.506Z,8.23
2019-03-06T18:21:18.736Z,10.53
2019-03-06T18:23:46.952Z,12.10
2019-03-06T18:26:15.153Z,11.27
2019-03-06T18:28:43.375Z,11.30
2019-03-06T18:31:11.671Z,5.60
2019-03-06T18:33:39.906Z,14.23
2019-03-06T18:36:08.410Z,12.13
2019-03-06T18:38:36.692Z,7.87
2019-03-06T18:41:04.903Z,6.30
2019-03-06T18:43:33.175Z,6.93
2019-03-06T18:46:01.483Z,6.63
2019-03-06T18:48:29.704Z,7.67
2019-03-06T18:50:57.941Z,8.93
2019-03-06T18:53:26.199Z,6.67
2019-03-06T18:55:54.396Z,7.53
2019-03-06T18:58:22.663Z,6.97
2019-03-06T19:00:51.134Z,5.28
2019-03-06T19:03:19.409Z,8.53
2019-03-06T19:05:47.618Z,7.20
2019-03-06T19:08:16.183Z,7.23
2019-03-06T19:10:44.409Z,8.00
2019-03-06T19:13:12.697Z,14.60
2019-03-06T19:15:40.989Z,8.93
2019-03-06T19:18:09.273Z,9.40
2019-03-06T19:20:37.484Z,8.60
2019-03-06T19:23:14.479Z,4.97
2019-03-06T19:25:42.670Z,7.60
2019-03-06T19:28:10.819Z,8.77
2019-03-06T19:30:39.090Z,19.03
2019-03-06T19:33:07.292Z,8.60
2019-03-06T19:35:35.571Z,6.33
2019-03-06T19:38:03.757Z,4.20
2019-03-06T19:40:33.475Z,5.63
2019-03-06T19:43:01.861Z,7.87
2019-03-06T19:45:30.159Z,7.77
2019-03-06T19:47:58.371Z,9.27
2019-03-06T19:50:27.066Z,12.20
2019-03-06T19:52:55.348Z,10.73
2019-03-06T19:55:23.986Z,9.07
2019-03-06T19:57:53.144Z,6.23
2019-03-06T20:00:22.097Z,6.60
2019-03-06T20:02:50.498Z,5.00
2019-03-06T20:05:19.275Z,6.83
2019-03-06T20:07:47.554Z,6.00
2019-03-06T20:10:16.349Z,6.70
2019-03-06T20:12:45.540Z,5.50
2019-03-06T20:15:15.286Z,9.93
2019-03-06T20:17:43.537Z,7.78
2019-03-06T20:20:13.283Z,7.23
2019-03-06T20:22:41.628Z,8.13
2019-03-06T20:25:10.678Z,9.87
2019-03-06T20:27:38.942Z,11.37
2019-03-06T20:30:08.694Z,8.33
2019-03-06T20:32:37.025Z,9.77
2019-03-06T20:35:06.299Z,7.50
2019-03-06T20:37:34.526Z,8.23
2019-03-06T20:40:02.732Z,8.50
2019-03-06T20:42:31.222Z,8.23
2019-03-06T20:44:59.717Z,9.95
2019-03-06T20:47:29.455Z,8.27
2019-03-06T20:49:57.752Z,7.73
2019-03-06T20:52:25.965Z,8.53
2019-03-06T20:54:54.152Z,9.80
2019-03-06T20:57:22.359Z,12.50
2019-03-06T20:59:50.765Z,9.73
2019-03-06T21:02:19.662Z,9.43
2019-03-06T21:04:47.875Z,10.57
2019-03-06T21:07:16.110Z,6.53
2019-03-06T21:09:44.326Z,8.07
2019-03-06T21:12:12.595Z,6.67
2019-03-06T21:14:40.796Z,8.63
2019-03-06T21:17:09.002Z,9.60
2019-03-06T21:19:37.230Z,9.70
2019-03-06T21:22:05.645Z,8.47
2019-03-06T21:24:34.673Z,7.70
2019-03-06T21:27:03.888Z,9.18
2019-03-06T21:29:32.081Z,10.10
2019-03-06T21:32:00.271Z,8.68
2019-03-06T21:34:28.565Z,7.53
2019-03-06T21:36:56.840Z,12.00
2019-03-06T21:39:25.077Z,9.00
2019-03-06T21:41:53.292Z,12.03
2019-03-06T21:44:21.735Z,9.40
2019-03-06T21:46:49.990Z,10.47
2019-03-06T21:49:18.129Z,11.78
2019-03-06T21:51:46.361Z,8.27
2019-03-06T21:54:14.646Z,7.17
2019-03-06T21:56:43.649Z,8.80
2019-03-06T21:59:11.911Z,6.27
2019-03-06T22:01:40.114Z,9.68
2019-03-06T22:04:08.483Z,6.27
2019-03-06T22:06:36.713Z,11.87
2019-03-06T22:09:06.506Z,12.43
2019-03-06T22:11:34.891Z,9.97
2019-03-06T22:14:03.220Z,7.25
2019-03-06T22:16:31.904Z,9.20
2019-03-06T22:19:01.029Z,11.47
2019-03-06T22:21:30.080Z,6.83
2019-03-06T22:23:58.240Z,10.82
2019-03-06T22:26:26.734Z,6.97
2019-03-06T22:28:55.035Z,11.57
2019-03-06T22:31:24.872Z,6.90
2019-03-06T22:33:53.031Z,8.83
2019-03-06T22:36:21.660Z,12.47
2019-03-06T22:38:50.746Z,13.78
2019-03-06T22:41:18.854Z,6.97
2019-03-06T22:43:47.804Z,8.97
2019-03-06T22:46:15.934Z,9.35
2019-03-06T22:48:48.706Z,8.73
2019-03-06T22:51:16.926Z,8.57
2019-03-06T22:53:45.119Z,8.73
2019-03-06T22:56:13.618Z,8.98
2019-03-06T22:58:41.808Z,7.63
2019-03-06T23:01:11.569Z,11.33
2019-03-06T23:03:39.755Z,7.43
2019-03-06T23:06:08.044Z,12.33
2019-03-06T23:08:36.294Z,9.07
2019-03-06T23:11:04.930Z,8.87
2019-03-06T23:13:33.768Z,5.70
2019-03-06T23:16:01.978Z,6.97
2019-03-06T23:18:30.168Z,9.40
2019-03-06T23:20:58.457Z,9.70
2019-03-06T23:23:26.657Z,9.07
2019-03-06T23:25:55.061Z,12.50
2019-03-06T23:28:23.301Z,6.70
2019-03-06T23:30:51.623Z,9.30
2019-03-06T23:33:19.936Z,7.73
2019-03-06T23:35:48.244Z,7.27
2019-03-06T23:38:16.434Z,11.27
2019-03-06T23:40:44.632Z,9.73
2019-03-06T23:43:13.025Z,8.53
2019-03-06T23:45:41.224Z,11.77
2019-03-06T23:48:09.532Z,14.27
2019-03-06T23:50:37.742Z,6.37
2019-03-06T23:53:07.075Z,8.00
2019-03-06T23:55:35.296Z,8.07
2019-03-06T23:58:03.695Z,9.63
